createdAt,value
2023-03-12T00:03:40.565Z,14.50
2023-03-12T00:13:44.320Z,14.70
2023-03-12T00:23:52.394Z,16.30
2023-03-12T00:33:56.683Z,14.60
2023-03-12T00:44:00.456Z,14.70
2023-03-12T00:54:04.939Z,14.20
2023-03-12T01:04:09.729Z,12.40
2023-03-12T01:14:17.063Z,12.90
2023-03-12T01:24:20.926Z,13.20
2023-03-12T01:34:24.510Z,13.60
2023-03-12T01:44:28.742Z,11.80
2023-03-12T01:54:40.249Z,11.10
2023-03-12T02:04:46.322Z,11.60
2023-03-12T02:14:50.417Z,13.20
2023-03-12T02:25:14.389Z,11.40
2023-03-12T02:35:18.862Z,9.80
2023-03-12T02:45:27.321Z,10.30
2023-03-12T02:55:31.853Z,10.00
2023-03-12T03:05:37.585Z,10.30
2023-03-12T03:15:43.902Z,10.30
2023-03-12T03:25:48.084Z,8.80
2023-03-12T03:35:52.270Z,8.90
2023-03-12T03:45:59.553Z,7.80
2023-03-12T03:56:12.347Z,7.90
2023-03-12T04:06:20.406Z,7.30
2023-03-12T04:16:24.991Z,4.40
2023-03-12T04:26:31.832Z,4.30
2023-03-12T04:36:35.558Z,5.30
2023-03-12T04:46:39.700Z,5.00
2023-03-12T04:56:45.856Z,5.80
2023-03-12T05:06:49.563Z,5.10
2023-03-12T05:16:53.392Z,4.30
2023-03-12T05:26:57.204Z,5.10
2023-03-12T05:37:01.020Z,3.40
2023-03-12T05:47:06.630Z,4.20
2023-03-12T05:57:10.772Z,3.30
2023-03-12T06:07:16.331Z,3.20
2023-03-12T06:17:20.004Z,3.50
2023-03-12T06:27:24.165Z,3.40
2023-03-12T06:37:28.607Z,3.40
2023-03-12T06:47:33.052Z,3.60
2023-03-12T06:57:36.650Z,3.30
2023-03-12T07:07:40.258Z,3.50
2023-03-12T07:17:45.877Z,3.70
2023-03-12T07:27:49.561Z,4.20
2023-03-12T07:37:53.489Z,3.30
2023-03-12T07:47:57.563Z,3.60
2023-03-12T07:58:05.057Z,4.60
2023-03-12T08:08:10.386Z,3.10
2023-03-12T08:18:14.721Z,3.90
2023-03-12T08:28:20.193Z,4.40
2023-03-12T08:38:26.047Z,3.50
2023-03-12T08:48:31.507Z,2.70
2023-03-12T08:58:37.282Z,3.00
2023-03-12T09:08:41.805Z,2.80
2023-03-12T09:18:45.780Z,4.70
2023-03-12T09:28:50.475Z,4.90
2023-03-12T09:38:55.359Z,5.00
2023-03-12T09:49:05.949Z,3.40
2023-03-12T09:59:13.221Z,3.20
2023-03-12T10:09:25.925Z,2.90
2023-03-12T10:19:51.148Z,2.90
2023-03-12T10:29:57.047Z,4.60
2023-03-12T10:40:02.462Z,4.00
2023-03-12T10:50:20.867Z,5.20
2023-03-12T11:00:37.142Z,3.90
2023-03-12T11:10:47.836Z,5.00
2023-03-12T11:21:24.578Z,4.30
2023-03-12T11:31:34.372Z,3.80
2023-03-12T11:41:44.162Z,3.50
2023-03-12T11:52:07.788Z,2.20
2023-03-12T12:02:37.994Z,2.50
2023-03-12T12:12:49.568Z,3.70
2023-03-12T12:23:23.410Z,3.90
2023-03-12T12:33:41.947Z,4.10
2023-03-12T12:44:17.617Z,4.20
2023-03-12T12:54:59.682Z,3.70
2023-03-12T13:05:03.401Z,2.30
2023-03-12T13:15:34.943Z,1.70
2023-03-12T13:26:06.057Z,2.40
2023-03-12T13:37:18.529Z,2.60
2023-03-12T13:47:34.332Z,2.70
2023-03-12T13:57:53.272Z,2.00
2023-03-12T14:08:26.686Z,2.00
2023-03-12T14:18:34.890Z,3.30
2023-03-12T14:28:41.614Z,2.40
2023-03-12T14:38:49.254Z,3.60
2023-03-12T14:48:57.554Z,3.20
2023-03-12T14:59:33.885Z,2.60
2023-03-12T15:09:37.677Z,2.40
2023-03-12T15:19:42.827Z,2.90
2023-03-12T15:29:49.852Z,3.20
2023-03-12T15:39:55.265Z,3.00
2023-03-12T15:50:08.118Z,2.80
2023-03-12T16:00:15.021Z,3.40
2023-03-12T16:10:22.829Z,3.60
2023-03-12T16:20:27.134Z,4.40
2023-03-12T16:30:35.180Z,3.20
2023-03-12T16:40:43.759Z,6.30
2023-03-12T16:50:52.750Z,8.00
2023-03-12T17:00:57.814Z,10.70
2023-03-12T17:11:01.831Z,11.50
2023-03-12T17:21:05.849Z,14.50
2023-03-12T17:31:10.136Z,122.50
2023-03-12T17:41:26.163Z,149.70
2023-03-12T17:51:32.143Z,131.10
2023-03-12T18:01:35.936Z,122.60
2023-03-12T18:11:39.964Z,183.80
2023-03-12T18:21:44.664Z,306.40
2023-03-12T18:32:09.312Z,324.50
2023-03-12T18:42:13.341Z,343.10
2023-03-12T18:52:17.071Z,277.70
2023-03-12T19:02:24.127Z,233.90
2023-03-12T19:12:28.363Z,148.10
2023-03-12T19:22:33.514Z,117.20
2023-03-12T19:32:43.684Z,86.40
2023-03-12T19:42:48.520Z,107.50
2023-03-12T19:52:52.449Z,158.30
2023-03-12T20:02:57.222Z,141.30
2023-03-12T20:13:01.363Z,127.70
2023-03-12T20:23:05.522Z,151.50
2023-03-12T20:33:13.094Z,153.10
2023-03-12T20:43:17.211Z,143.00
2023-03-12T20:53:21.033Z,85.40
2023-03-12T21:03:25.921Z,77.90
2023-03-12T21:13:31.111Z,75.10
2023-03-12T21:23:35.329Z,110.70
2023-03-12T21:33:41.623Z,96.50
2023-03-12T21:43:46.987Z,56.80
2023-03-12T21:53:55.562Z,52.80
2023-03-12T22:04:01.365Z,49.90
2023-03-12T22:14:05.491Z,40.00
2023-03-12T22:24:09.455Z,58.00
2023-03-12T22:34:13.550Z,92.00
2023-03-12T22:44:17.329Z,73.90
2023-03-12T22:54:21.006Z,71.10
2023-03-12T23:04:24.735Z,20.80
2023-03-12T23:14:28.313Z,26.50
2023-03-12T23:24:32.114Z,102.90
2023-03-12T23:34:35.730Z,51.80
2023-03-12T23:44:39.721Z,49.30
2023-03-12T23:54:43.287Z,48.20
